createdAt,value
2023-05-09T00:00:58.118Z,959.49
2023-05-09T00:03:57.267Z,959.51
2023-05-09T00:06:56.798Z,959.51
2023-05-09T00:09:57.697Z,959.36
2023-05-09T00:12:57.148Z,959.39
2023-05-09T00:15:57.701Z,959.3
2023-05-09T00:18:56.854Z,959.32
2023-05-09T00:21:57.063Z,959.26
2023-05-09T00:24:57.210Z,959.21
2023-05-09T00:27:57.042Z,959.15
2023-05-09T00:30:57.512Z,959.07
2023-05-09T00:33:57.457Z,959.14
2023-05-09T00:37:01.349Z,959.05
2023-05-09T00:39:57.057Z,959.11
2023-05-09T00:42:57.577Z,959.01
2023-05-09T00:45:57.224Z,959.0
2023-05-09T00:48:56.886Z,958.88
2023-05-09T00:51:56.976Z,958.91
2023-05-09T00:54:57.948Z,958.88
2023-05-09T00:57:57.554Z,958.84
2023-05-09T01:00:58.189Z,958.75
2023-05-09T01:03:57.203Z,958.66
2023-05-09T01:06:57.923Z,958.65
2023-05-09T01:09:57.261Z,958.69
2023-05-09T01:12:57.566Z,958.59
2023-05-09T01:15:57.305Z,958.69
2023-05-09T01:18:57.957Z,958.66
2023-05-09T01:21:57.288Z,958.59
2023-05-09T01:24:56.810Z,958.49
2023-05-09T01:27:57.596Z,958.46
2023-05-09T01:30:57.624Z,958.42
2023-05-09T01:33:57.201Z,958.33
2023-05-09T01:36:57.210Z,958.5
2023-05-09T01:39:57.831Z,958.39
2023-05-09T01:42:56.666Z,958.35
2023-05-09T01:45:57.653Z,958.36
2023-05-09T01:48:57.271Z,958.36
2023-05-09T01:51:57.480Z,958.33
2023-05-09T01:54:57.154Z,958.25
2023-05-09T01:57:57.461Z,958.26
2023-05-09T02:00:57.623Z,958.22
2023-05-09T02:03:57.224Z,958.19
2023-05-09T02:06:57.431Z,958.23
2023-05-09T02:09:57.154Z,958.22
2023-05-09T02:12:56.809Z,958.12
2023-05-09T02:15:57.091Z,958.16
2023-05-09T02:18:58.249Z,958.31
2023-05-09T02:21:57.147Z,958.21
2023-05-09T02:24:57.206Z,958.22
2023-05-09T02:27:57.022Z,958.19
2023-05-09T02:30:57.282Z,958.25
2023-05-09T02:33:58.061Z,958.34
2023-05-09T02:36:57.180Z,958.28
2023-05-09T02:39:57.948Z,958.25
2023-05-09T02:42:56.959Z,958.3
2023-05-09T02:45:57.666Z,958.27
2023-05-09T02:48:57.886Z,958.23
2023-05-09T02:51:57.208Z,958.25
2023-05-09T02:54:57.799Z,958.21
2023-05-09T02:58:09.700Z,958.24
2023-05-09T03:00:57.737Z,958.18
2023-05-09T03:03:57.029Z,958.14
2023-05-09T03:06:56.658Z,958.13
2023-05-09T03:09:57.568Z,958.11
2023-05-09T03:12:57.604Z,958.1
2023-05-09T03:15:57.369Z,958.03
2023-05-09T03:18:57.090Z,958.01
2023-05-09T03:21:57.332Z,958.08
2023-05-09T03:24:57.031Z,957.98
2023-05-09T03:27:57.327Z,958.01
2023-05-09T03:30:57.188Z,958.04
2023-05-09T03:33:58.065Z,958.11
2023-05-09T03:36:56.828Z,958.05
2023-05-09T03:39:57.084Z,958.06
2023-05-09T03:42:57.416Z,958.1
2023-05-09T03:45:57.351Z,958.05
2023-05-09T03:48:57.876Z,958.16
2023-05-09T03:51:56.935Z,958.17
2023-05-09T03:54:56.953Z,958.14
2023-05-09T03:57:57.314Z,958.21
2023-05-09T04:00:57.783Z,958.14
2023-05-09T04:03:57.168Z,958.07
2023-05-09T04:06:57.623Z,958.0
2023-05-09T04:09:57.661Z,958.0
2023-05-09T04:12:57.273Z,957.98
2023-05-09T04:15:57.358Z,958.04
2023-05-09T04:18:56.717Z,958.03
2023-05-09T04:21:56.728Z,958.14
2023-05-09T04:24:56.794Z,958.06
2023-05-09T04:27:57.367Z,958.07
2023-05-09T04:30:57.545Z,958.03
2023-05-09T04:33:57.457Z,957.99
2023-05-09T04:36:57.422Z,958.09
2023-05-09T04:39:57.333Z,958.1
2023-05-09T04:42:57.346Z,958.07
2023-05-09T04:45:57.436Z,958.07
2023-05-09T04:48:57.585Z,957.92
2023-05-09T04:51:57.888Z,957.9
2023-05-09T04:54:57.892Z,957.96
2023-05-09T04:57:57.841Z,957.93
2023-05-09T05:00:58.057Z,957.96
2023-05-09T05:03:57.928Z,957.97
2023-05-09T05:06:56.973Z,957.86
2023-05-09T05:09:58.253Z,957.84
2023-05-09T05:12:57.760Z,957.84
2023-05-09T05:15:57.804Z,957.87
2023-05-09T05:18:57.846Z,957.81
2023-05-09T05:21:58.053Z,957.87
2023-05-09T05:24:58.072Z,957.87
2023-05-09T05:27:57.599Z,957.94
2023-05-09T05:30:57.687Z,957.87
2023-05-09T05:33:57.832Z,957.83
2023-05-09T05:36:57.576Z,957.93
2023-05-09T05:39:57.375Z,957.93
2023-05-09T05:42:57.355Z,957.86
2023-05-09T05:45:57.839Z,957.87
2023-05-09T05:48:57.746Z,957.77
2023-05-09T05:51:57.724Z,957.79
2023-05-09T05:54:57.548Z,957.75
2023-05-09T05:57:57.807Z,957.75
2023-05-09T06:00:58.503Z,957.69
2023-05-09T06:03:57.366Z,957.71
2023-05-09T06:06:58.002Z,957.75
2023-05-09T06:09:57.991Z,957.75
2023-05-09T06:12:58.233Z,957.71
2023-05-09T06:16:01.908Z,957.7
2023-05-09T06:18:57.787Z,957.64
2023-05-09T06:21:57.583Z,957.68
2023-05-09T06:24:57.542Z,957.59
2023-05-09T06:27:58.035Z,957.56
2023-05-09T06:30:57.373Z,957.64
2023-05-09T06:33:57.369Z,957.65
2023-05-09T06:36:57.474Z,957.58
2023-05-09T06:39:57.545Z,957.56
2023-05-09T06:42:57.600Z,957.49
2023-05-09T06:45:57.742Z,957.48
2023-05-09T06:48:57.474Z,957.48
2023-05-09T06:51:57.226Z,957.47
2023-05-09T06:54:57.671Z,957.61
2023-05-09T06:57:57.303Z,957.55
2023-05-09T07:00:57.777Z,957.41
2023-05-09T07:03:57.440Z,957.39
2023-05-09T07:06:57.550Z,957.42
2023-05-09T07:12:57.653Z,957.29
2023-05-09T07:15:57.252Z,957.19
2023-05-09T07:18:57.053Z,957.14
2023-05-09T07:21:56.882Z,957.16
2023-05-09T07:24:56.728Z,957.18
2023-05-09T07:27:57.914Z,957.09
2023-05-09T07:30:57.180Z,957.07
2023-05-09T07:33:57.481Z,957.01
2023-05-09T07:36:57.952Z,956.85
2023-05-09T07:39:57.228Z,956.82
2023-05-09T07:42:56.986Z,956.81
2023-05-09T07:45:56.883Z,956.85
2023-05-09T07:48:56.935Z,956.7
2023-05-09T07:51:57.735Z,956.64
2023-05-09T07:54:57.666Z,956.64
2023-05-09T07:57:57.772Z,956.68
2023-05-09T08:00:57.680Z,956.65
2023-05-09T08:03:57.397Z,956.69
2023-05-09T08:06:56.998Z,956.61
2023-05-09T08:09:57.382Z,956.59
2023-05-09T08:12:57.294Z,956.62
2023-05-09T08:15:58.175Z,956.53
2023-05-09T08:18:58.075Z,956.53
2023-05-09T08:21:57.420Z,956.46
2023-05-09T08:24:57.431Z,956.35
2023-05-09T08:27:57.473Z,956.38
2023-05-09T08:30:57.115Z,956.29
2023-05-09T08:33:58.018Z,956.32
2023-05-09T08:36:56.992Z,956.26
2023-05-09T08:39:57.230Z,956.24
2023-05-09T08:42:57.033Z,956.22
2023-05-09T08:45:57.363Z,956.24
2023-05-09T08:48:57.282Z,956.2
2023-05-09T08:51:57.731Z,956.18
2023-05-09T08:54:56.835Z,956.17
2023-05-09T08:57:56.980Z,956.09
2023-05-09T09:00:57.615Z,956.05
2023-05-09T09:03:57.158Z,956.08
2023-05-09T09:06:57.397Z,956.06
2023-05-09T09:09:57.987Z,956.13
2023-05-09T09:12:56.652Z,956.0
2023-05-09T09:15:57.493Z,956.04
2023-05-09T09:18:58.880Z,956.01
2023-05-09T09:21:57.078Z,955.94
2023-05-09T09:24:56.976Z,955.88
2023-05-09T09:27:57.399Z,955.82
2023-05-09T09:30:57.247Z,955.83
2023-05-09T09:33:58.024Z,955.79
2023-05-09T09:36:57.741Z,955.76
2023-05-09T09:39:57.643Z,955.74
2023-05-09T09:42:57.558Z,955.68
2023-05-09T09:45:57.804Z,955.57
2023-05-09T09:48:56.954Z,955.52
2023-05-09T09:51:57.418Z,955.48
2023-05-09T09:54:56.971Z,955.42
2023-05-09T09:57:58.826Z,955.36
2023-05-09T10:00:57.793Z,955.23
2023-05-09T10:03:56.990Z,955.19
2023-05-09T10:06:57.486Z,955.19
2023-05-09T10:09:57.744Z,955.21
2023-05-09T10:12:57.636Z,955.1
2023-05-09T10:15:57.096Z,955.1
2023-05-09T10:18:56.793Z,955.09
2023-05-09T10:21:57.252Z,955.04
2023-05-09T10:24:57.824Z,955.01
2023-05-09T10:27:56.936Z,954.82
2023-05-09T10:30:57.566Z,954.86
2023-05-09T10:33:58.463Z,954.79
2023-05-09T10:36:57.052Z,954.72
2023-05-09T10:39:57.275Z,954.7
2023-05-09T10:42:57.217Z,954.75
2023-05-09T10:45:57.332Z,954.67
2023-05-09T10:48:57.517Z,954.64
2023-05-09T10:51:57.956Z,954.62
2023-05-09T10:54:57.495Z,954.54
2023-05-09T10:57:57.706Z,954.54
2023-05-09T11:00:57.825Z,954.62
2023-05-09T11:04:16.892Z,954.45
2023-05-09T11:06:57.894Z,954.27
2023-05-09T11:09:57.737Z,954.34
2023-05-09T11:12:58.387Z,954.24
2023-05-09T11:15:57.790Z,954.27
2023-05-09T11:18:56.887Z,954.19
2023-05-09T11:21:57.519Z,954.16
2023-05-09T11:24:57.645Z,954.19
2023-05-09T11:27:57.281Z,954.06
2023-05-09T11:30:57.680Z,954.1
2023-05-09T11:33:57.024Z,953.94
2023-05-09T11:36:57.318Z,953.87
2023-05-09T11:39:57.606Z,953.92
2023-05-09T11:42:58.862Z,953.79
2023-05-09T11:45:57.222Z,953.68
2023-05-09T11:48:56.980Z,953.76
2023-05-09T11:51:57.578Z,953.66
2023-05-09T11:54:57.314Z,953.67
2023-05-09T11:57:57.421Z,953.63
2023-05-09T12:00:57.981Z,953.54
2023-05-09T12:03:58.013Z,953.51
2023-05-09T12:06:57.135Z,953.48
2023-05-09T12:09:57.040Z,953.53
2023-05-09T12:12:57.473Z,953.48
2023-05-09T12:15:57.094Z,953.47
2023-05-09T12:18:57.029Z,953.36
2023-05-09T12:21:57.006Z,953.24
2023-05-09T12:24:57.580Z,953.25
2023-05-09T12:27:57.273Z,953.15
2023-05-09T12:30:57.149Z,953.2
2023-05-09T12:33:57.972Z,953.2
2023-05-09T12:36:57.398Z,952.97
2023-05-09T12:39:57.823Z,952.93
2023-05-09T12:42:57.561Z,952.97
2023-05-09T12:45:57.719Z,952.93
2023-05-09T12:48:56.809Z,952.9
2023-05-09T12:51:57.832Z,952.88
2023-05-09T12:54:56.794Z,952.79
2023-05-09T12:57:56.778Z,952.82
2023-05-09T13:00:58.397Z,952.69
2023-05-09T13:03:57.514Z,952.68
2023-05-09T13:06:57.564Z,952.67
2023-05-09T13:09:57.259Z,952.53
2023-05-09T13:12:57.851Z,952.49
2023-05-09T13:15:58.135Z,952.52
2023-05-09T13:18:57.816Z,952.46
2023-05-09T13:21:57.279Z,952.29
2023-05-09T13:24:57.653Z,952.33
2023-05-09T13:27:57.512Z,952.2
2023-05-09T13:30:57.948Z,952.27
2023-05-09T13:33:57.752Z,952.14
2023-05-09T13:36:57.137Z,952.17
2023-05-09T13:39:57.520Z,952.11
2023-05-09T13:42:57.524Z,951.92
2023-05-09T13:45:57.861Z,951.92
2023-05-09T13:48:57.798Z,951.97
2023-05-09T13:51:57.001Z,951.89
2023-05-09T13:54:57.709Z,951.9
2023-05-09T13:57:57.672Z,951.89
2023-05-09T14:00:57.222Z,951.73
2023-05-09T14:03:57.251Z,951.77
2023-05-09T14:06:57.519Z,951.73
2023-05-09T14:10:10.548Z,951.67
2023-05-09T14:12:57.896Z,951.7
2023-05-09T14:15:57.129Z,951.64
2023-05-09T14:18:57.641Z,951.52
2023-05-09T14:21:57.025Z,951.57
2023-05-09T14:25:04.147Z,951.46
2023-05-09T14:27:57.262Z,951.43
2023-05-09T14:30:57.469Z,951.51
2023-05-09T14:33:57.556Z,951.44
2023-05-09T14:36:57.338Z,951.28
2023-05-09T14:39:56.850Z,951.32
2023-05-09T14:42:57.342Z,951.29
2023-05-09T14:45:57.685Z,951.16
2023-05-09T14:48:57.828Z,951.13
2023-05-09T14:51:57.168Z,951.13
2023-05-09T14:54:57.156Z,951.1
2023-05-09T14:57:57.683Z,951.0
2023-05-09T15:00:57.453Z,950.94
2023-05-09T15:03:57.426Z,950.89
2023-05-09T15:06:57.628Z,950.81
2023-05-09T15:09:57.467Z,950.89
2023-05-09T15:12:57.332Z,950.79
2023-05-09T15:15:57.587Z,950.77
2023-05-09T15:18:57.582Z,950.8
2023-05-09T15:21:57.856Z,950.7
2023-05-09T15:24:57.476Z,950.66
2023-05-09T15:27:57.442Z,950.72
2023-05-09T15:30:57.949Z,950.61
2023-05-09T15:33:57.364Z,950.53
2023-05-09T15:36:56.828Z,950.53
2023-05-09T15:39:57.496Z,950.53
2023-05-09T15:42:57.962Z,950.49
2023-05-09T15:45:57.718Z,950.5
2023-05-09T15:48:57.360Z,950.49
2023-05-09T15:51:57.277Z,950.33
2023-05-09T15:54:57.308Z,950.37
2023-05-09T15:57:57.565Z,950.4
2023-05-09T16:00:58.690Z,950.32
2023-05-09T16:03:57.506Z,950.21
2023-05-09T16:06:57.688Z,950.29
2023-05-09T16:09:58.250Z,950.19
2023-05-09T16:12:57.928Z,950.2
2023-05-09T16:15:58.011Z,950.2
2023-05-09T16:18:57.637Z,950.16
2023-05-09T16:21:57.842Z,950.14
2023-05-09T16:24:58.211Z,950.07
2023-05-09T16:27:57.979Z,949.97
2023-05-09T16:30:57.770Z,950.08
2023-05-09T16:33:57.823Z,949.93
2023-05-09T16:36:57.481Z,949.91
2023-05-09T16:39:57.676Z,949.85
2023-05-09T16:42:58.220Z,949.78
2023-05-09T16:45:57.602Z,949.7
2023-05-09T16:48:58.036Z,949.79
2023-05-09T16:51:57.934Z,949.75
2023-05-09T16:54:58.156Z,949.71
2023-05-09T16:57:57.878Z,949.64
2023-05-09T17:00:58.873Z,949.71
2023-05-09T17:03:57.757Z,949.67
2023-05-09T17:06:57.469Z,949.58
2023-05-09T17:09:57.963Z,949.57
2023-05-09T17:12:57.594Z,949.62
2023-05-09T17:15:57.420Z,949.5
2023-05-09T17:18:57.084Z,949.47
2023-05-09T17:21:57.772Z,949.46
2023-05-09T17:24:58.128Z,949.46
2023-05-09T17:27:57.475Z,949.34
2023-05-09T17:30:58.418Z,949.39
2023-05-09T17:33:58.552Z,949.29
2023-05-09T17:36:57.677Z,949.2
2023-05-09T17:39:57.585Z,949.24
2023-05-09T17:42:57.717Z,949.21
2023-05-09T17:45:57.689Z,949.15
2023-05-09T17:48:57.553Z,949.17
2023-05-09T17:51:58.383Z,949.11
2023-05-09T17:54:57.497Z,949.12
2023-05-09T17:57:57.208Z,949.04
2023-05-09T18:00:58.005Z,949.11
2023-05-09T18:03:58.119Z,949.0
2023-05-09T18:06:58.054Z,949.1
2023-05-09T18:09:58.005Z,949.03
2023-05-09T18:12:57.894Z,949.01
2023-05-09T18:15:57.463Z,949.0
2023-05-09T18:18:57.064Z,949.03
2023-05-09T18:21:57.889Z,949.07
2023-05-09T18:24:57.310Z,949.07
2023-05-09T18:27:57.848Z,949.13
2023-05-09T18:30:58.254Z,949.16
2023-05-09T18:33:57.748Z,949.11
2023-05-09T18:36:57.610Z,949.1
2023-05-09T18:39:57.491Z,949.13
2023-05-09T18:42:57.103Z,949.16
2023-05-09T18:45:57.113Z,949.17
2023-05-09T18:48:56.905Z,949.29
2023-05-09T18:51:57.432Z,949.13
2023-05-09T18:54:57.321Z,949.19
2023-05-09T18:57:56.984Z,949.63
2023-05-09T19:01:26.229Z,949.8
2023-05-09T19:03:57.423Z,949.69
2023-05-09T19:06:57.965Z,949.83
2023-05-09T19:09:57.649Z,950.0
2023-05-09T19:12:57.325Z,950.2
2023-05-09T19:15:57.239Z,950.17
2023-05-09T19:18:57.052Z,950.17
2023-05-09T19:21:57.086Z,950.25
2023-05-09T19:24:57.547Z,950.35
2023-05-09T19:27:56.653Z,950.43
2023-05-09T19:30:57.341Z,950.55
2023-05-09T19:33:57.839Z,950.5
2023-05-09T19:36:58.099Z,950.61
2023-05-09T19:39:57.997Z,950.56
2023-05-09T19:42:57.458Z,950.6
2023-05-09T19:45:57.847Z,950.75
2023-05-09T19:48:57.228Z,950.76
2023-05-09T19:51:57.196Z,950.79
2023-05-09T19:54:57.484Z,950.83
2023-05-09T19:57:57.181Z,950.72
2023-05-09T20:00:58.078Z,950.88
2023-05-09T20:03:57.304Z,950.95
2023-05-09T20:06:56.938Z,950.95
2023-05-09T20:09:57.826Z,950.81
2023-05-09T20:12:57.601Z,950.68
2023-05-09T20:15:57.276Z,950.65
2023-05-09T20:18:57.289Z,950.61
2023-05-09T20:21:57.474Z,950.61
2023-05-09T20:24:58.071Z,950.63
2023-05-09T20:27:58.134Z,950.57
2023-05-09T20:30:57.371Z,950.56
2023-05-09T20:33:57.948Z,950.47
2023-05-09T20:36:57.024Z,950.51
2023-05-09T20:39:57.573Z,950.53
2023-05-09T20:42:57.186Z,950.37
2023-05-09T20:45:57.015Z,950.34
2023-05-09T20:48:57.615Z,950.36
2023-05-09T20:51:57.117Z,950.41
2023-05-09T20:54:57.224Z,950.26
2023-05-09T20:57:57.130Z,950.21
2023-05-09T21:00:58.124Z,950.24
2023-05-09T21:03:57.181Z,950.23
2023-05-09T21:06:58.040Z,950.21
2023-05-09T21:09:58.441Z,950.22
2023-05-09T21:12:58.036Z,950.32
2023-05-09T21:15:57.229Z,950.32
2023-05-09T21:18:57.036Z,950.19
2023-05-09T21:21:57.644Z,950.22
2023-05-09T21:24:57.591Z,950.23
2023-05-09T21:27:57.441Z,950.17
2023-05-09T21:30:58.213Z,950.15
2023-05-09T21:33:57.635Z,950.19
2023-05-09T21:36:57.735Z,950.15
2023-05-09T21:39:57.937Z,950.09
2023-05-09T21:42:57.118Z,950.06
2023-05-09T21:45:57.555Z,950.06
2023-05-09T21:48:57.781Z,950.06
2023-05-09T21:51:57.322Z,950.11
2023-05-09T21:54:57.543Z,950.03
2023-05-09T21:57:57.621Z,949.95
2023-05-09T22:00:57.935Z,950.03
2023-05-09T22:03:57.298Z,950.03
2023-05-09T22:06:57.443Z,950.03
2023-05-09T22:09:57.455Z,949.86
2023-05-09T22:12:56.981Z,949.82
2023-05-09T22:15:57.700Z,949.86
2023-05-09T22:18:57.631Z,949.89
2023-05-09T22:21:56.739Z,949.82
2023-05-09T22:24:57.230Z,949.9
2023-05-09T22:27:57.292Z,949.83
2023-05-09T22:30:57.013Z,949.83
2023-05-09T22:33:57.316Z,949.82
2023-05-09T22:36:56.784Z,949.8
2023-05-09T22:39:57.426Z,949.83
2023-05-09T22:42:56.617Z,949.83
2023-05-09T22:45:57.221Z,949.8
2023-05-09T22:48:56.955Z,949.86
2023-05-09T22:51:57.587Z,949.89
2023-05-09T22:54:56.932Z,949.9
2023-05-09T22:57:57.320Z,949.84
2023-05-09T23:00:57.765Z,949.86
2023-05-09T23:03:57.378Z,949.8
2023-05-09T23:06:57.824Z,949.79
2023-05-09T23:09:57.322Z,949.79
2023-05-09T23:12:57.870Z,949.76
2023-05-09T23:15:57.104Z,949.72
2023-05-09T23:18:57.589Z,949.71
2023-05-09T23:21:57.778Z,949.69
2023-05-09T23:24:57.213Z,949.72
2023-05-09T23:27:56.951Z,949.7
2023-05-09T23:31:13.832Z,949.63
2023-05-09T23:33:57.620Z,949.66
2023-05-09T23:36:56.969Z,949.64
2023-05-09T23:39:57.488Z,949.6
2023-05-09T23:42:57.656Z,949.61
2023-05-09T23:45:56.965Z,949.63
2023-05-09T23:48:57.121Z,949.54
2023-05-09T23:51:57.541Z,949.5
2023-05-09T23:54:57.332Z,949.41
2023-05-09T23:57:56.485Z,949.41
